This is the latest recevied weather packets stored in our database for station/object KM6YFK-13. If no packets are shown the sender has not sent any weather packets the latest 1 day(s).
| Time | Temp. | Humidity | Pressure | Rain* | Wind** | Luminosity | Snow |
|---|---|---|---|---|---|---|---|
| 1778081908 | 28.33° C | 50% | 1017.8 hPa | 0 mm | - | 754 W/m² | - |
| 1778081612 | 27.78° C | 52% | 1017.8 hPa | 0 mm | - | 720 W/m² | - |
| 1778080710 | 27.78° C | 55% | 1017.7 hPa | 0 mm | - | 736 W/m² | - |
| 1778080108 | 27.22° C | 56% | 1017.6 hPa | 0 mm | - | 670 W/m² | - |
| 1778079208 | 27.22° C | 58% | 1017.4 hPa | 0 mm | - | 666 W/m² | - |
| 1778078308 | 26.67° C | 62% | 1017.5 hPa | 0 mm | - | 611 W/m² | - |
| 1778077410 | 26.67° C | 65% | 1017.5 hPa | 0 mm | - | 643 W/m² | - |
| 1778077110 | 26.67° C | 65% | 1017.5 hPa | 0 mm | - | 532 W/m² | - |
| 1778076510 | 26.11° C | 66% | 1017.5 hPa | 0 mm | - | 527 W/m² | - |
| 1778075908 | 26.11° C | 70% | 1017.4 hPa | 0 mm | - | 601 W/m² | - |
| 1778074711 | 25° C | 72% | 1017.3 hPa | 0 mm | - | 492 W/m² | - |
| 1778074410 | 25° C | 73% | 1017.3 hPa | 0 mm | - | 438 W/m² | - |
| 1778074111 | 25° C | 74% | 1017.3 hPa | 0 mm | - | 486 W/m² | - |
| 1778073208 | 24.44° C | 74% | 1017.2 hPa | 0 mm | - | 403 W/m² | - |
| 1778071408 | 23.33° C | 78% | 1017.4 hPa | 0 mm | - | 309 W/m² | - |
| 1778071111 | 22.78° C | 79% | 1017.3 hPa | 0 mm | - | 272 W/m² | - |
| 1778070811 | 22.78° C | 81% | 1017.3 hPa | 0 mm | - | 249 W/m² | - |
| 1778070208 | 21.67° C | 83% | 1017.2 hPa | 0 mm | - | 181 W/m² | - |
| 1778069610 | 21.11° C | 86% | 1017.1 hPa | 0 mm | - | 198 W/m² | - |
| 1778067510 | 18.33° C | 95% | 1016.7 hPa | 0 mm | - | 100 W/m² | - |
| 1778066608 | 18.33° C | 95% | 1016.6 hPa | 0 mm | - | 54 W/m² | - |
| 1778065712 | 17.78° C | 95% | 1016.4 hPa | 0 mm | - | 36 W/m² | - |
| 1778065110 | 17.78° C | 95% | 1016.3 hPa | 0 mm | - | 19 W/m² | - |
| 1778064812 | 17.78° C | 95% | 1016.2 hPa | 0 mm | - | 13 W/m² | - |
| 1778063010 | 17.78° C | 94% | 1016 hPa | 0 mm | - | 0 W/m² | - |
* Rain latest hour (hover to see other rain measurements)
** Current wind speed in m/s (hover to see current wind gust speed)